Time;durP1;ratioP1;P1;durP2;ratioP2;P2;SDS_P1;SDS_P2;PMS_P1;PMS_P2;Temp;Humidity;BMP_temperature;BMP_pressure;BME280_temperature;BME280_humidity;BME280_pressure;Samples;Min_cycle;Max_cycle;Signal;HPM_P1;HPM_P2
2020/12/26 00:01:14;;;;;;;9.00;6.57;;;2.90;99.90;;;;;;5069144;28;20239;-59
2020/12/26 00:03:40;;;;;;;9.20;6.93;;;3.00;99.90;;;;;;5069279;28;20458;-59
2020/12/26 00:06:06;;;;;;;8.40;6.60;;;2.70;99.90;;;;;;5069111;28;20650;-59
2020/12/26 00:08:34;;;;;;;8.82;7.22;;;2.80;99.90;;;;;;5068862;28;20462;-59
2020/12/26 00:11:00;;;;;;;8.57;6.60;;;2.70;99.90;;;;;;5069115;28;20209;-59
2020/12/26 00:13:26;;;;;;;23.55;15.95;;;2.70;99.90;;;;;;5069029;28;20177;-59
2020/12/26 00:15:52;;;;;;;9.70;6.72;;;2.70;99.90;;;;;;5068712;28;20181;-59
2020/12/26 00:18:17;;;;;;;8.80;6.70;;;2.70;99.90;;;;;;5069768;28;20181;-59
2020/12/26 00:20:43;;;;;;;8.40;6.93;;;2.50;99.90;;;;;;5068646;28;20654;-59
2020/12/26 00:23:09;;;;;;;7.90;6.30;;;3.00;99.90;;;;;;5068838;28;20634;-59
2020/12/26 00:25:34;;;;;;;8.97;6.90;;;2.60;99.90;;;;;;5068566;28;20244;-59
2020/12/26 00:28:00;;;;;;;10.00;7.20;;;2.60;99.90;;;;;;5060497;28;20201;-58
2020/12/26 00:30:25;;;;;;;8.90;6.57;;;2.30;99.90;;;;;;5066762;28;20262;-59
2020/12/26 00:32:51;;;;;;;11.60;7.60;;;2.70;99.90;;;;;;5068730;28;20272;-59
2020/12/26 00:35:16;;;;;;;12.17;7.53;;;2.70;99.90;;;;;;5068425;28;20218;-59
2020/12/26 00:37:42;;;;;;;10.00;6.60;;;2.90;99.90;;;;;;5068179;28;20252;-58
2020/12/26 00:40:08;;;;;;;9.90;6.53;;;2.70;99.90;;;;;;5068237;28;20275;-59
2020/12/26 00:42:33;;;;;;;11.50;6.63;;;2.60;99.90;;;;;;5065113;28;20181;-58
2020/12/26 00:44:59;;;;;;;9.27;6.50;;;2.80;99.90;;;;;;5068231;28;20591;-58
2020/12/26 00:47:24;;;;;;;8.03;6.23;;;2.80;99.90;;;;;;5068521;28;20631;-58
2020/12/26 00:49:50;;;;;;;10.47;7.10;;;2.60;99.90;;;;;;5067927;28;20212;-59
2020/12/26 00:52:15;;;;;;;10.57;8.20;;;2.80;99.90;;;;;;5069552;28;20188;-59
2020/12/26 00:54:41;;;;;;;8.53;6.63;;;2.40;99.90;;;;;;5068453;28;20181;-59
2020/12/26 00:57:07;;;;;;;9.20;7.30;;;2.40;99.90;;;;;;5068219;28;20209;-59
2020/12/26 00:59:32;;;;;;;10.77;8.03;;;2.60;99.90;;;;;;5067974;28;20189;-59
2020/12/26 01:01:58;;;;;;;9.10;6.73;;;2.40;99.90;;;;;;5068511;28;20245;-59
2020/12/26 01:04:23;;;;;;;11.53;8.10;;;2.20;99.90;;;;;;5068414;28;20196;-59
2020/12/26 01:06:56;;;;;;;11.60;7.50;;;2.30;99.90;;;;;;5067817;28;20247;-59
2020/12/26 01:09:23;;;;;;;9.25;7.47;;;2.20;99.90;;;;;;5067998;28;20185;-59
2020/12/26 01:11:49;;;;;;;10.35;8.13;;;2.20;99.90;;;;;;5068256;28;20211;-59
2020/12/26 01:14:15;;;;;;;12.75;7.60;;;2.10;99.90;;;;;;5068744;28;20577;-58
2020/12/26 01:16:41;;;;;;;10.57;8.17;;;2.20;99.90;;;;;;5067701;28;20288;-59
2020/12/26 01:19:06;;;;;;;10.80;8.63;;;2.20;99.90;;;;;;5067883;28;20591;-59
2020/12/26 01:21:32;;;;;;;10.90;7.67;;;2.20;99.90;;;;;;5067895;28;20711;-59
2020/12/26 01:24:01;;;;;;;9.87;7.53;;;2.00;99.90;;;;;;5067976;28;20847;-59
2020/12/26 01:26:26;;;;;;;10.70;7.60;;;2.10;99.90;;;;;;5067648;28;20315;-58
2020/12/26 01:28:52;;;;;;;13.80;8.27;;;2.20;99.90;;;;;;5067544;28;20268;-59
2020/12/26 01:31:18;;;;;;;11.60;8.77;;;1.90;99.90;;;;;;5067859;28;20641;-59
2020/12/26 01:33:43;;;;;;;13.10;8.43;;;2.10;99.90;;;;;;5068035;28;20235;-59
2020/12/26 01:36:13;;;;;;;12.70;7.83;;;1.90;99.90;;;;;;5067560;28;20295;-58
2020/12/26 01:38:39;;;;;;;11.73;8.77;;;2.00;99.90;;;;;;5068834;28;20177;-59
2020/12/26 01:41:04;;;;;;;10.60;8.02;;;1.90;99.90;;;;;;5071691;28;20184;-59
2020/12/26 01:43:30;;;;;;;11.57;7.73;;;1.80;99.90;;;;;;5067047;28;20544;-58
2020/12/26 01:45:56;;;;;;;12.40;7.47;;;2.00;99.90;;;;;;5071452;28;20192;-59
2020/12/26 01:48:21;;;;;;;11.70;8.77;;;2.00;99.90;;;;;;5071286;28;20189;-59
2020/12/26 01:50:48;;;;;;;8.10;6.97;;;1.90;99.90;;;;;;5071416;28;20575;-59
2020/12/26 01:53:14;;;;;;;10.70;8.15;;;1.70;99.90;;;;;;5071554;28;20192;-58
2020/12/26 01:55:41;;;;;;;12.10;8.70;;;2.10;99.90;;;;;;5071611;28;20177;-59
2020/12/26 01:58:12;;;;;;;12.18;7.97;;;1.80;99.90;;;;;;5071059;28;20201;-59
2020/12/26 02:00:38;;;;;;;10.95;7.25;;;1.90;99.90;;;;;;5071513;28;20191;-59
2020/12/26 02:03:04;;;;;;;11.57;7.78;;;1.80;99.90;;;;;;5071730;28;20659;-59
2020/12/26 02:05:30;;;;;;;11.97;8.00;;;1.90;99.90;;;;;;5071415;28;20386;-59
2020/12/26 02:07:56;;;;;;;14.47;7.40;;;1.90;99.90;;;;;;5071348;28;20493;-59
2020/12/26 02:10:22;;;;;;;9.15;7.38;;;1.90;99.90;;;;;;5071010;28;20876;-59
2020/12/26 02:12:47;;;;;;;10.37;7.70;;;2.10;99.90;;;;;;5071316;28;20215;-59
2020/12/26 02:15:14;;;;;;;10.27;7.90;;;2.10;99.90;;;;;;5066339;28;20239;-59
2020/12/26 02:17:40;;;;;;;13.30;8.10;;;2.10;99.90;;;;;;5070866;28;20205;-59
2020/12/26 02:20:06;;;;;;;12.50;8.93;;;2.00;99.90;;;;;;5071219;28;20231;-59
2020/12/26 02:22:32;;;;;;;12.77;8.70;;;1.90;99.90;;;;;;5071337;28;20845;-59
2020/12/26 02:24:57;;;;;;;14.77;9.00;;;2.00;99.90;;;;;;5070939;28;20196;-59
2020/12/26 02:27:23;;;;;;;11.90;8.50;;;2.00;99.90;;;;;;5071112;28;20316;-59
2020/12/26 02:29:48;;;;;;;11.47;8.30;;;2.10;99.90;;;;;;5070935;28;20633;-59
2020/12/26 02:32:14;;;;;;;11.30;7.87;;;2.00;99.90;;;;;;5071056;28;20177;-59
2020/12/26 02:34:39;;;;;;;14.60;9.07;;;2.10;99.90;;;;;;5070924;28;20189;-60
2020/12/26 02:37:05;;;;;;;12.07;8.87;;;2.20;99.90;;;;;;5070768;28;20201;-59
2020/12/26 02:39:31;;;;;;;11.90;8.13;;;2.40;99.90;;;;;;5070510;28;20419;-60
2020/12/26 02:41:56;;;;;;;9.97;7.40;;;2.40;99.90;;;;;;5066158;28;20186;-59
2020/12/26 02:44:22;;;;;;;11.70;8.50;;;2.30;99.90;;;;;;5069059;28;20197;-59
2020/12/26 02:46:49;;;;;;;12.57;7.93;;;2.20;99.90;;;;;;5066422;28;20205;-59
2020/12/26 02:49:16;;;;;;;15.68;7.85;;;2.30;99.90;;;;;;5070124;28;20188;-59
2020/12/26 02:51:42;;;;;;;13.65;8.80;;;2.00;99.90;;;;;;5070328;28;20241;-59
2020/12/26 02:54:11;;;;;;;11.37;8.03;;;2.30;99.90;;;;;;5070273;28;20185;-59
2020/12/26 02:56:40;;;;;;;15.27;8.65;;;2.10;99.90;;;;;;5057365;28;20232;-59
2020/12/26 02:59:08;;;;;;;15.80;9.13;;;2.30;99.90;;;;;;5070129;28;20189;-59
2020/12/26 03:01:39;;;;;;;12.80;8.32;;;2.00;99.90;;;;;;5070543;28;20192;-59
2020/12/26 03:04:04;;;;;;;13.25;9.10;;;2.00;99.90;;;;;;5070414;28;20185;-59
2020/12/26 03:06:30;;;;;;;10.10;8.33;;;2.20;99.90;;;;;;5070347;28;20239;-59
2020/12/26 03:08:59;;;;;;;14.07;8.70;;;1.90;99.90;;;;;;5069653;28;20213;-60
2020/12/26 03:11:24;;;;;;;14.68;8.30;;;2.10;99.90;;;;;;5069683;28;20209;-59
2020/12/26 03:13:50;;;;;;;13.00;8.60;;;2.10;99.90;;;;;;5070619;28;20283;-58
2020/12/26 03:16:19;;;;;;;13.60;9.40;;;2.20;99.90;;;;;;5069944;28;20675;-59
2020/12/26 03:18:46;;;;;;;14.30;8.48;;;2.00;99.90;;;;;;5071069;28;20323;-59
2020/12/26 03:21:12;;;;;;;13.05;8.50;;;2.10;99.90;;;;;;5070006;28;20554;-59
2020/12/26 03:23:38;;;;;;;12.88;7.85;;;2.30;99.90;;;;;;5070214;28;20654;-59
2020/12/26 03:26:03;;;;;;;14.90;7.83;;;1.80;99.90;;;;;;5086537;28;20209;-59
2020/12/26 03:28:30;;;;;;;11.05;8.40;;;2.30;99.90;;;;;;5053617;28;20312;-59
2020/12/26 03:30:56;;;;;;;10.30;7.82;;;2.30;99.90;;;;;;5070021;28;20209;-59
2020/12/26 03:33:22;;;;;;;11.63;7.60;;;2.30;99.90;;;;;;5070072;28;20181;-59
2020/12/26 03:35:47;;;;;;;13.20;8.20;;;2.00;99.90;;;;;;5069701;28;20657;-59
2020/12/26 03:38:13;;;;;;;15.17;8.53;;;2.30;99.90;;;;;;5071297;28;20682;-59
2020/12/26 03:40:38;;;;;;;13.83;8.83;;;2.10;99.90;;;;;;5069750;28;20192;-59
2020/12/26 03:43:04;;;;;;;12.27;7.73;;;2.00;99.90;;;;;;5068864;28;20220;-59
2020/12/26 03:45:30;;;;;;;9.57;7.13;;;2.20;99.90;;;;;;5069594;28;20213;-59
2020/12/26 03:47:55;;;;;;;11.30;7.20;;;2.10;99.90;;;;;;5069192;28;20581;-59
2020/12/26 03:50:21;;;;;;;13.47;8.40;;;2.20;99.90;;;;;;5069139;28;20205;-59
2020/12/26 03:52:46;;;;;;;13.10;8.60;;;2.10;99.90;;;;;;5069242;28;20217;-59
2020/12/26 03:55:12;;;;;;;12.90;8.20;;;1.90;99.90;;;;;;5069336;28;20460;-59
2020/12/26 03:57:37;;;;;;;19.40;8.67;;;2.10;99.90;;;;;;5069143;28;20200;-59
2020/12/26 04:00:05;;;;;;;10.40;7.60;;;2.00;99.90;;;;;;5068882;28;20654;-59
2020/12/26 04:02:31;;;;;;;10.57;7.18;;;2.00;99.90;;;;;;5068542;28;20641;-59
2020/12/26 04:04:57;;;;;;;13.07;7.90;;;2.00;99.90;;;;;;5068901;28;20207;-59
2020/12/26 04:07:22;;;;;;;14.33;7.90;;;2.10;99.90;;;;;;5068781;28;20458;-60
2020/12/26 04:09:48;;;;;;;12.77;8.40;;;2.10;99.90;;;;;;5068698;28;20643;-59
2020/12/26 04:12:14;;;;;;;13.10;8.50;;;2.10;99.90;;;;;;5069154;28;20185;-59
2020/12/26 04:14:39;;;;;;;11.73;7.57;;;2.00;99.90;;;;;;5068970;28;20223;-59
2020/12/26 04:17:05;;;;;;;11.50;7.50;;;2.10;99.90;;;;;;5068209;28;20234;-59
2020/12/26 04:19:30;;;;;;;10.27;7.67;;;1.80;99.90;;;;;;5068352;28;20284;-59
2020/12/26 04:21:56;;;;;;;11.97;7.70;;;2.10;99.90;;;;;;5068677;28;20191;-59
2020/12/26 04:24:22;;;;;;;9.20;6.83;;;1.80;99.90;;;;;;5068638;28;20185;-59
2020/12/26 04:26:48;;;;;;;10.40;7.67;;;1.90;99.90;;;;;;5068583;28;20536;-59
2020/12/26 04:29:14;;;;;;;14.83;9.00;;;2.20;99.90;;;;;;5061006;28;20828;-59
2020/12/26 04:31:39;;;;;;;13.93;7.78;;;2.00;99.90;;;;;;5069862;28;20204;-59
2020/12/26 04:34:05;;;;;;;10.50;7.90;;;2.10;99.90;;;;;;5068270;28;20184;-59
2020/12/26 04:36:31;;;;;;;10.95;8.13;;;2.10;99.90;;;;;;5068400;28;20213;-59
2020/12/26 04:38:57;;;;;;;12.87;7.77;;;2.10;99.90;;;;;;5068036;28;20696;-59
2020/12/26 04:41:23;;;;;;;11.40;7.20;;;1.90;99.90;;;;;;5068479;28;20185;-59
2020/12/26 04:43:48;;;;;;;15.45;8.10;;;2.30;99.90;;;;;;5068416;28;20530;-59
2020/12/26 04:46:18;;;;;;;14.57;9.70;;;1.60;99.90;;;;;;5068095;28;20207;-59
2020/12/26 04:48:53;;;;;;;9.82;7.57;;;2.10;99.90;;;;;;5069612;28;20184;-59
2020/12/26 04:51:19;;;;;;;15.98;8.25;;;2.30;99.90;;;;;;5068440;28;20227;-59
2020/12/26 04:53:51;;;;;;;14.40;8.50;;;2.50;99.90;;;;;;5068666;28;20276;-59
2020/12/26 04:56:20;;;;;;;14.05;8.90;;;2.50;99.90;;;;;;5068294;28;20439;-59
2020/12/26 04:58:48;;;;;;;13.68;8.98;;;2.10;99.90;;;;;;5067515;28;20189;-59
2020/12/26 05:01:15;;;;;;;11.38;7.55;;;2.10;99.90;;;;;;5068116;28;20606;-59
2020/12/26 05:03:43;;;;;;;10.75;7.85;;;1.60;99.90;;;;;;5068348;28;20193;-59
2020/12/26 05:06:10;;;;;;;12.32;8.23;;;2.10;99.90;;;;;;5068153;28;20694;-59
2020/12/26 05:08:35;;;;;;;12.20;6.90;;;2.40;99.90;;;;;;5067888;28;20196;-59
2020/12/26 05:11:01;;;;;;;10.50;7.67;;;2.30;99.90;;;;;;5068156;28;20555;-59
2020/12/26 05:13:27;;;;;;;13.73;8.10;;;2.40;99.90;;;;;;5067140;28;20177;-59
2020/12/26 05:15:53;;;;;;;10.80;7.95;;;1.90;99.90;;;;;;5066093;28;20177;-60
2020/12/26 05:18:19;;;;;;;11.80;7.68;;;2.40;99.90;;;;;;5054749;28;20185;-59
2020/12/26 05:20:45;;;;;;;13.00;8.33;;;2.40;99.90;;;;;;5067675;28;20567;-59
2020/12/26 05:23:12;;;;;;;11.57;8.00;;;2.60;99.90;;;;;;5067956;28;20193;-59
2020/12/26 05:25:46;;;;;;;15.38;8.57;;;2.60;99.90;;;;;;5067918;28;20208;-59
2020/12/26 05:28:16;;;;;;;15.75;7.53;;;2.50;99.90;;;;;;5067528;28;20678;-60
2020/12/26 05:30:44;;;;;;;16.48;8.82;;;2.60;99.90;;;;;;5067948;28;20216;-59
2020/12/26 05:33:10;;;;;;;11.23;8.50;;;2.40;99.90;;;;;;5067890;28;20716;-59
2020/12/26 05:35:44;;;;;;;12.90;8.70;;;2.60;99.90;;;;;;5070982;28;20602;-59
2020/12/26 05:38:15;;;;;;;13.35;9.52;;;2.60;99.90;;;;;;5067374;28;20717;-58
2020/12/26 05:40:54;;;;;;;13.00;8.10;;;2.80;99.90;;;;;;5067550;28;20219;-59
2020/12/26 05:43:22;;;;;;;17.67;9.20;;;2.60;99.90;;;;;;5067860;28;20181;-60
2020/12/26 05:45:48;;;;;;;10.52;8.30;;;2.70;99.90;;;;;;5067645;28;20192;-60
2020/12/26 05:48:16;;;;;;;13.07;8.65;;;2.70;99.90;;;;;;5067318;28;20526;-59
2020/12/26 05:50:42;;;;;;;14.80;9.75;;;2.50;99.90;;;;;;5067511;28;20689;-59
2020/12/26 05:53:11;;;;;;;12.88;8.35;;;2.60;99.90;;;;;;5067623;28;20277;-57
2020/12/26 05:55:44;;;;;;;14.38;9.57;;;2.70;99.90;;;;;;5067403;28;20257;-58
2020/12/26 05:58:11;;;;;;;14.82;8.40;;;2.80;99.90;;;;;;5067119;28;20745;-57
2020/12/26 06:00:39;;;;;;;13.00;7.93;;;2.60;99.90;;;;;;5067683;28;20208;-57
2020/12/26 06:03:25;;;;;;;11.68;8.32;;;2.40;99.90;;;;;;5067386;28;20211;-58
2020/12/26 06:06:02;;;;;;;12.90;9.45;;;2.40;99.90;;;;;;5067023;28;20201;-58
2020/12/26 06:08:28;;;;;;;13.60;9.70;;;2.40;99.90;;;;;;5066707;28;20736;-58
2020/12/26 06:10:55;;;;;;;13.80;9.60;;;2.30;99.90;;;;;;5067122;28;20213;-59
2020/12/26 06:13:22;;;;;;;15.75;9.68;;;2.20;99.90;;;;;;5067286;28;20739;-58
2020/12/26 06:15:53;;;;;;;13.45;9.30;;;2.30;99.90;;;;;;5067196;28;20181;-58
2020/12/26 06:18:21;;;;;;;14.20;9.02;;;2.40;99.90;;;;;;5066979;28;20272;-59
2020/12/26 06:20:48;;;;;;;13.70;8.82;;;2.00;99.90;;;;;;5067361;28;20239;-58
2020/12/26 06:23:19;;;;;;;13.82;9.45;;;2.40;99.90;;;;;;5067352;28;20188;-58
2020/12/26 06:25:46;;;;;;;14.02;9.07;;;2.00;99.90;;;;;;5070079;28;20678;-58
2020/12/26 06:28:27;;;;;;;15.55;9.25;;;2.10;99.90;;;;;;5070598;28;20295;-59
2020/12/26 06:30:55;;;;;;;18.00;10.43;;;2.10;99.90;;;;;;5070456;28;20216;-58
2020/12/26 06:33:26;;;;;;;18.73;10.73;;;2.20;99.90;;;;;;5070916;28;20259;-58
2020/12/26 06:35:58;;;;;;;13.07;9.65;;;1.90;99.90;;;;;;5070592;28;20181;-59
2020/12/26 06:38:27;;;;;;;17.85;10.52;;;2.00;99.90;;;;;;5070410;28;20196;-59
2020/12/26 06:41:14;;;;;;;13.80;10.07;;;2.10;99.90;;;;;;5070602;28;20185;-58
2020/12/26 06:43:40;;;;;;;13.85;8.77;;;2.10;99.90;;;;;;5075943;28;20200;-59
2020/12/26 06:46:21;;;;;;;11.77;9.03;;;1.90;99.90;;;;;;5070280;28;20197;-58
2020/12/26 06:48:55;;;;;;;15.48;9.35;;;1.80;99.90;;;;;;5077167;28;20522;-59
2020/12/26 06:51:31;;;;;;;16.48;9.73;;;2.00;99.90;;;;;;5070276;28;20221;-58
2020/12/26 06:54:01;;;;;;;13.32;9.48;;;2.00;99.90;;;;;;5070421;28;20276;-58
2020/12/26 06:56:33;;;;;;;16.38;10.45;;;1.80;99.90;;;;;;5070450;28;20202;-58
2020/12/26 06:59:07;;;;;;;15.68;9.75;;;1.60;99.90;;;;;;5070247;28;20185;-58
2020/12/26 07:01:34;;;;;;;15.13;9.98;;;1.70;99.90;;;;;;5070276;28;20202;-58
2020/12/26 07:04:20;;;;;;;14.52;9.68;;;1.80;99.90;;;;;;5070651;28;20219;-58
2020/12/26 07:06:50;;;;;;;14.70;10.95;;;1.90;99.90;;;;;;5070070;28;20696;-58
2020/12/26 07:09:18;;;;;;;16.95;9.85;;;1.70;99.90;;;;;;5070129;28;20185;-58
2020/12/26 07:11:46;;;;;;;11.75;9.57;;;1.60;99.90;;;;;;5070150;28;20221;-59
2020/12/26 07:14:32;;;;;;;16.45;10.98;;;1.90;99.90;;;;;;5070069;28;20181;-58
2020/12/26 07:17:02;;;;;;;20.00;11.27;;;1.80;99.90;;;;;;5069800;28;20212;-58
2020/12/26 07:19:38;;;;;;;17.77;9.95;;;2.10;99.90;;;;;;5070464;28;20172;-58
2020/12/26 07:22:05;;;;;;;18.40;10.10;;;2.00;99.90;;;;;;5070113;28;20193;-57
2020/12/26 07:24:35;;;;;;;16.42;10.48;;;2.00;99.90;;;;;;5070045;28;20177;-57
2020/12/26 07:27:20;;;;;;;13.32;9.50;;;2.30;99.90;;;;;;5069938;28;20197;-57
2020/12/26 07:29:52;;;;;;;15.48;8.45;;;2.30;99.90;;;;;;5049763;28;20210;-57
2020/12/26 07:32:36;;;;;;;13.20;9.35;;;2.10;99.90;;;;;;5066582;28;20200;-57
2020/12/26 07:35:07;;;;;;;15.50;9.20;;;2.30;99.90;;;;;;5049815;28;20170;-57
2020/12/26 07:37:33;;;;;;;15.82;10.18;;;2.10;99.90;;;;;;5048528;28;20198;-57
2020/12/26 07:39:59;;;;;;;16.17;9.48;;;1.90;99.90;;;;;;5077377;28;20262;-57
2020/12/26 07:42:26;;;;;;;17.93;9.40;;;1.90;99.90;;;;;;5063410;28;20596;-58
2020/12/26 07:44:52;;;;;;;12.90;9.15;;;1.90;99.90;;;;;;5069382;28;20442;-59
2020/12/26 07:47:18;;;;;;;17.38;9.77;;;2.10;99.90;;;;;;5069353;28;20201;-58
2020/12/26 07:49:56;;;;;;;15.30;10.27;;;1.80;99.90;;;;;;5068971;28;20685;-58
2020/12/26 07:52:22;;;;;;;16.15;9.18;;;2.10;99.90;;;;;;5060532;28;20465;-58
2020/12/26 07:54:57;;;;;;;16.27;9.10;;;2.00;99.90;;;;;;5069199;28;20209;-58
2020/12/26 07:57:22;;;;;;;14.27;10.35;;;2.00;99.90;;;;;;5068993;28;20204;-58
2020/12/26 07:59:48;;;;;;;17.43;10.47;;;1.90;99.90;;;;;;5069062;28;20665;-58
2020/12/26 08:02:13;;;;;;;15.70;9.63;;;2.20;99.90;;;;;;5085959;28;20181;-58
2020/12/26 08:04:43;;;;;;;13.40;8.33;;;2.00;99.90;;;;;;5069198;28;20280;-58
2020/12/26 08:07:18;;;;;;;13.70;9.65;;;2.30;99.90;;;;;;5069134;28;20204;-58
2020/12/26 08:09:50;;;;;;;13.35;8.55;;;2.30;99.90;;;;;;5069096;28;20578;-58
2020/12/26 08:12:17;;;;;;;13.18;8.77;;;2.50;99.90;;;;;;5070241;28;20584;-58
2020/12/26 08:14:42;;;;;;;14.10;9.65;;;2.40;99.90;;;;;;5069006;28;20196;-59
2020/12/26 08:17:10;;;;;;;15.13;9.73;;;2.50;99.90;;;;;;5065338;28;20201;-58
2020/12/26 08:19:37;;;;;;;12.25;9.05;;;2.50;99.90;;;;;;5059980;28;20192;-58
2020/12/26 08:22:03;;;;;;;12.68;8.70;;;2.50;99.90;;;;;;5048740;28;20185;-58
2020/12/26 08:24:30;;;;;;;11.85;8.30;;;2.60;99.90;;;;;;5048970;28;20182;-58
2020/12/26 08:26:56;;;;;;;11.32;7.63;;;2.60;99.90;;;;;;5048773;28;20197;-58
2020/12/26 08:29:26;;;;;;;12.05;8.60;;;2.80;99.90;;;;;;5067848;28;20188;-58
2020/12/26 08:31:59;;;;;;;12.30;7.93;;;2.90;99.90;;;;;;5068180;28;20200;-58
2020/12/26 08:34:51;;;;;;;17.17;9.10;;;3.00;99.90;;;;;;5069148;28;20512;-58
2020/12/26 08:37:32;;;;;;;11.82;8.13;;;3.20;99.90;;;;;;5068497;28;20201;-58
2020/12/26 08:40:03;;;;;;;13.63;8.40;;;3.20;99.90;;;;;;5068556;28;20175;-58
2020/12/26 08:42:29;;;;;;;10.90;7.70;;;3.00;99.90;;;;;;5062176;28;20511;-58
2020/12/26 08:44:55;;;;;;;12.25;8.10;;;2.90;99.90;;;;;;5068095;28;20258;-59
2020/12/26 08:47:32;;;;;;;11.75;8.77;;;2.90;99.90;;;;;;5067709;28;20213;-58
2020/12/26 08:49:58;;;;;;;11.55;8.20;;;3.30;99.90;;;;;;5068094;28;20243;-58
2020/12/26 08:52:27;;;;;;;11.13;8.88;;;3.10;99.90;;;;;;5068187;28;20272;-58
2020/12/26 08:55:01;;;;;;;12.63;8.70;;;3.50;99.90;;;;;;5067999;28;20200;-58
2020/12/26 08:57:27;;;;;;;12.32;8.57;;;3.20;99.90;;;;;;5055528;28;20670;-58
2020/12/26 08:59:52;;;;;;;13.27;8.53;;;3.40;99.90;;;;;;5068041;28;20185;-58
2020/12/26 09:02:18;;;;;;;10.70;8.47;;;3.30;99.90;;;;;;5067679;28;20242;-58
2020/12/26 09:04:44;;;;;;;10.77;8.33;;;3.50;99.90;;;;;;5068038;28;20271;-59
2020/12/26 09:07:22;;;;;;;15.20;9.40;;;3.80;99.90;;;;;;5067644;28;20567;-58
2020/12/26 09:09:48;;;;;;;10.45;8.63;;;3.80;99.90;;;;;;5067922;28;20205;-59
2020/12/26 09:12:15;;;;;;;13.43;9.30;;;3.80;99.90;;;;;;5067918;28;20177;-59
2020/12/26 09:14:41;;;;;;;8.95;7.50;;;3.80;99.90;;;;;;5068403;28;20189;-58
2020/12/26 09:17:08;;;;;;;14.10;8.53;;;4.30;99.90;;;;;;5067624;28;20216;-58
2020/12/26 09:19:45;;;;;;;9.88;7.43;;;4.30;99.90;;;;;;5062518;28;20221;-58
2020/12/26 09:22:12;;;;;;;11.38;7.55;;;4.30;99.90;;;;;;5064796;28;20271;-58
2020/12/26 09:24:38;;;;;;;10.05;8.38;;;4.60;99.90;;;;;;5068369;28;20205;-59
2020/12/26 09:27:04;;;;;;;10.15;7.47;;;4.60;99.90;;;;;;5068055;28;20618;-59
2020/12/26 09:29:30;;;;;;;9.40;7.18;;;4.70;99.90;;;;;;5067669;28;20248;-58
2020/12/26 09:31:55;;;;;;;9.50;7.67;;;4.30;99.90;;;;;;5067698;28;20208;-58
2020/12/26 09:34:25;;;;;;;12.00;7.70;;;4.80;99.90;;;;;;5067680;28;20210;-58
2020/12/26 09:37:10;;;;;;;8.00;6.18;;;4.60;99.90;;;;;;5067380;28;20572;-58
2020/12/26 09:39:37;;;;;;;8.80;7.53;;;4.60;99.90;;;;;;5067074;28;20203;-58
2020/12/26 09:42:03;;;;;;;10.25;6.80;;;4.50;99.90;;;;;;5064357;28;20699;-58
2020/12/26 09:44:29;;;;;;;10.93;7.25;;;4.80;99.90;;;;;;5062291;28;20209;-58
2020/12/26 09:46:59;;;;;;;9.20;6.23;;;4.80;99.90;;;;;;5067115;28;20237;-58
2020/12/26 09:49:25;;;;;;;8.05;6.05;;;4.60;99.90;;;;;;5067214;28;20483;-58
2020/12/26 09:51:51;;;;;;;11.23;6.83;;;5.00;99.90;;;;;;5067891;28;20220;-58
2020/12/26 09:54:16;;;;;;;8.10;6.20;;;5.00;99.90;;;;;;5067809;28;20183;-59
2020/12/26 09:56:42;;;;;;;9.13;6.30;;;4.90;99.90;;;;;;5067261;28;20270;-59
2020/12/26 09:59:08;;;;;;;8.47;6.20;;;5.30;99.90;;;;;;5067590;28;20635;-58
2020/12/26 10:01:34;;;;;;;8.40;6.43;;;5.20;99.90;;;;;;5071269;28;20194;-58
2020/12/26 10:04:00;;;;;;;8.65;6.55;;;5.00;99.90;;;;;;5071337;28;20190;-58
2020/12/26 10:06:25;;;;;;;7.80;5.87;;;5.20;99.90;;;;;;5071216;28;20211;-59
2020/12/26 10:08:51;;;;;;;9.00;6.00;;;5.40;99.90;;;;;;5070912;28;20443;-58
2020/12/26 10:11:18;;;;;;;6.60;5.83;;;5.40;99.90;;;;;;5071059;28;20591;-58
2020/12/26 10:13:45;;;;;;;6.97;5.60;;;5.50;99.90;;;;;;5070668;28;20191;-58
2020/12/26 10:16:11;;;;;;;6.22;5.63;;;5.40;99.90;;;;;;5070950;28;20294;-58
2020/12/26 10:18:37;;;;;;;5.65;5.05;;;5.90;99.80;;;;;;5070775;28;20631;-58
2020/12/26 10:21:03;;;;;;;11.40;5.13;;;5.50;99.00;;;;;;5067918;28;20184;-58
2020/12/26 10:23:29;;;;;;;10.73;5.43;;;5.90;99.10;;;;;;5071124;28;20214;-59
2020/12/26 10:26:02;;;;;;;7.70;5.03;;;5.70;98.60;;;;;;5070595;28;20199;-58
2020/12/26 10:28:28;;;;;;;7.05;5.35;;;5.90;98.70;;;;;;5070315;28;20178;-58
2020/12/26 10:30:53;;;;;;;6.73;5.67;;;5.80;98.90;;;;;;5070937;28;21088;-58
2020/12/26 10:33:19;;;;;;;6.80;4.67;;;5.70;99.20;;;;;;5070997;28;20183;-58
2020/12/26 10:35:44;;;;;;;5.50;4.70;;;5.80;99.10;;;;;;5071166;28;20221;-58
2020/12/26 10:38:10;;;;;;;5.93;5.07;;;5.70;99.30;;;;;;5070399;28;20216;-58
2020/12/26 10:40:36;;;;;;;6.57;5.63;;;5.80;98.90;;;;;;5070850;28;20237;-57
2020/12/26 10:43:01;;;;;;;6.63;5.10;;;5.70;98.40;;;;;;5067098;28;20205;-58
2020/12/26 10:45:27;;;;;;;7.13;5.90;;;5.90;98.10;;;;;;5059628;28;20589;-58
2020/12/26 10:47:53;;;;;;;5.90;4.57;;;5.80;98.20;;;;;;5070476;28;20876;-58
2020/12/26 10:50:18;;;;;;;5.60;4.70;;;5.60;97.70;;;;;;5070428;28;20203;-57
2020/12/26 10:52:44;;;;;;;6.77;4.77;;;6.00;97.50;;;;;;5071244;28;20182;-58
2020/12/26 10:55:17;;;;;;;5.10;4.47;;;6.10;97.30;;;;;;5070912;28;20237;-58
2020/12/26 10:57:43;;;;;;;5.63;4.75;;;6.30;97.00;;;;;;5070436;28;20219;-58
2020/12/26 11:00:12;;;;;;;8.45;4.63;;;6.20;96.20;;;;;;5070430;28;20195;-58
2020/12/26 11:02:38;;;;;;;6.05;4.55;;;6.40;95.80;;;;;;5070353;28;20200;-58
2020/12/26 11:05:05;;;;;;;5.03;3.90;;;6.30;95.90;;;;;;5070093;28;20238;-58
2020/12/26 11:07:31;;;;;;;5.70;4.40;;;6.40;95.90;;;;;;5071968;28;20258;-58
2020/12/26 11:09:57;;;;;;;5.45;4.22;;;6.10;96.30;;;;;;5069738;28;20205;-58
2020/12/26 11:12:23;;;;;;;7.60;4.70;;;6.10;96.10;;;;;;5069918;28;20226;-58
2020/12/26 11:14:49;;;;;;;4.53;4.03;;;6.20;96.20;;;;;;5069819;28;20249;-58
2020/12/26 11:17:14;;;;;;;5.80;3.87;;;5.90;97.00;;;;;;5069799;28;20621;-58
2020/12/26 11:19:40;;;;;;;5.70;4.30;;;6.40;96.40;;;;;;5064997;28;20181;-58
2020/12/26 11:22:06;;;;;;;8.03;5.30;;;6.50;96.20;;;;;;5065598;28;20185;-58
2020/12/26 11:24:31;;;;;;;5.50;4.00;;;6.20;95.90;;;;;;5070762;28;20443;-58
2020/12/26 11:26:57;;;;;;;6.53;4.67;;;6.30;95.70;;;;;;5069667;28;20287;-58
2020/12/26 11:29:23;;;;;;;4.63;4.10;;;6.60;95.10;;;;;;5069539;28;20184;-57
2020/12/26 11:31:49;;;;;;;5.20;3.87;;;6.70;94.30;;;;;;5069856;28;20209;-58
2020/12/26 11:34:14;;;;;;;5.75;4.25;;;6.80;94.10;;;;;;5069220;28;20222;-58
2020/12/26 11:36:40;;;;;;;4.43;4.03;;;6.90;93.50;;;;;;5069296;28;20201;-58
2020/12/26 11:39:06;;;;;;;4.37;3.50;;;7.00;92.90;;;;;;5069126;28;20538;-60
2020/12/26 11:41:32;;;;;;;6.37;4.00;;;6.90;93.00;;;;;;5069395;28;20208;-59
2020/12/26 11:43:58;;;;;;;5.03;4.17;;;7.00;92.40;;;;;;5070434;28;20413;-57
2020/12/26 11:46:24;;;;;;;6.80;4.15;;;7.20;92.60;;;;;;5069397;28;20439;-57
2020/12/26 11:48:50;;;;;;;4.57;3.93;;;7.20;92.50;;;;;;5069245;28;20584;-60
2020/12/26 11:51:16;;;;;;;4.80;4.30;;;7.10;92.00;;;;;;5069114;28;20462;-59
2020/12/26 11:53:41;;;;;;;5.47;3.97;;;6.70;92.80;;;;;;5069109;28;20245;-57
2020/12/26 11:56:11;;;;;;;5.50;4.10;;;6.60;93.40;;;;;;5068984;28;20516;-58
2020/12/26 11:58:38;;;;;;;6.30;4.30;;;6.60;93.10;;;;;;5068673;28;20184;-57
2020/12/26 12:01:05;;;;;;;4.07;3.55;;;6.40;93.30;;;;;;5069172;28;20203;-58
2020/12/26 12:03:31;;;;;;;11.32;4.03;;;6.50;93.00;;;;;;5068933;28;20188;-58
2020/12/26 12:05:57;;;;;;;4.32;3.58;;;6.30;92.70;;;;;;5069029;28;20252;-57
2020/12/26 12:08:23;;;;;;;4.60;4.00;;;6.50;93.10;;;;;;5068414;28;20488;-58
2020/12/26 12:10:48;;;;;;;5.53;3.90;;;6.40;93.40;;;;;;5068938;28;20208;-57
2020/12/26 12:13:14;;;;;;;6.47;5.03;;;6.50;92.90;;;;;;5069056;28;20184;-57
2020/12/26 12:15:40;;;;;;;5.50;4.77;;;6.50;93.70;;;;;;5068423;28;20265;-57
2020/12/26 12:18:09;;;;;;;5.97;4.90;;;6.20;94.00;;;;;;5068189;28;20454;-58
2020/12/26 12:20:35;;;;;;;6.78;5.13;;;6.30;94.40;;;;;;5063715;28;20238;-59
2020/12/26 12:23:01;;;;;;;7.80;4.75;;;6.10;95.00;;;;;;5068069;28;20676;-58
2020/12/26 12:25:27;;;;;;;7.40;4.40;;;6.20;95.00;;;;;;5068495;28;20231;-58
2020/12/26 12:27:54;;;;;;;5.78;5.03;;;6.20;95.10;;;;;;5063831;28;20460;-58
2020/12/26 12:30:22;;;;;;;8.38;5.38;;;6.30;95.20;;;;;;5068022;28;20230;-58
2020/12/26 12:32:47;;;;;;;7.82;4.60;;;6.50;95.50;;;;;;5070291;28;20272;-58
2020/12/26 12:35:13;;;;;;;6.07;4.63;;;6.40;95.00;;;;;;5068384;28;20985;-58
2020/12/26 12:37:39;;;;;;;5.50;4.90;;;6.30;94.50;;;;;;5068033;28;20630;-59
2020/12/26 12:40:06;;;;;;;7.47;5.00;;;6.20;94.90;;;;;;5068062;28;20841;-59
2020/12/26 12:42:31;;;;;;;7.55;4.75;;;6.10;94.90;;;;;;5065428;28;20221;-58
2020/12/26 12:44:58;;;;;;;5.33;4.40;;;6.20;95.40;;;;;;5062293;28;20265;-59
2020/12/26 12:47:27;;;;;;;4.25;3.85;;;6.10;94.70;;;;;;5068615;28;20217;-59
2020/12/26 12:49:54;;;;;;;5.65;4.28;;;6.10;93.10;;;;;;5067790;28;20196;-60
2020/12/26 12:52:20;;;;;;;7.15;4.05;;;6.40;93.50;;;;;;5068145;28;20190;-58